sensor_id;sensor_type;location;lat;lon;timestamp;temperature;humidity
2162;DHT22;1087;50.226;8.682;2023-04-24T00:02:22;14.40;99.90
2162;DHT22;1087;50.226;8.682;2023-04-24T00:04:49;14.40;99.90
2162;DHT22;1087;50.226;8.682;2023-04-24T00:07:15;14.40;99.90
2162;DHT22;1087;50.226;8.682;2023-04-24T00:09:42;14.50;99.90
2162;DHT22;1087;50.226;8.682;2023-04-24T00:12:08;14.50;99.90
2162;DHT22;1087;50.226;8.682;2023-04-24T00:14:34;14.60;99.90
2162;DHT22;1087;50.226;8.682;2023-04-24T00:17:00;14.60;99.90
2162;DHT22;1087;50.226;8.682;2023-04-24T00:19:27;14.50;99.90
2162;DHT22;1087;50.226;8.682;2023-04-24T00:21:54;14.50;99.90
2162;DHT22;1087;50.226;8.682;2023-04-24T00:24:20;14.40;99.90
2162;DHT22;1087;50.226;8.682;2023-04-24T00:26:46;14.50;99.90
2162;DHT22;1087;50.226;8.682;2023-04-24T00:29:12;14.50;99.90
2162;DHT22;1087;50.226;8.682;2023-04-24T00:31:37;14.50;99.90
2162;DHT22;1087;50.226;8.682;2023-04-24T00:34:03;14.50;99.90
2162;DHT22;1087;50.226;8.682;2023-04-24T00:36:30;14.50;99.90
2162;DHT22;1087;50.226;8.682;2023-04-24T00:38:56;14.50;99.90
2162;DHT22;1087;50.226;8.682;2023-04-24T00:41:22;14.40;99.90
2162;DHT22;1087;50.226;8.682;2023-04-24T00:43:48;14.50;99.90
2162;DHT22;1087;50.226;8.682;2023-04-24T00:46:14;14.50;99.90
2162;DHT22;1087;50.226;8.682;2023-04-24T00:48:40;14.60;99.90
2162;DHT22;1087;50.226;8.682;2023-04-24T00:51:06;14.50;99.90
2162;DHT22;1087;50.226;8.682;2023-04-24T00:53:31;14.40;99.90
2162;DHT22;1087;50.226;8.682;2023-04-24T00:55:58;14.30;99.90
2162;DHT22;1087;50.226;8.682;2023-04-24T00:58:24;14.20;99.90
2162;DHT22;1087;50.226;8.682;2023-04-24T01:00:50;14.30;99.90
2162;DHT22;1087;50.226;8.682;2023-04-24T01:03:22;14.30;99.90
2162;DHT22;1087;50.226;8.682;2023-04-24T01:05:48;14.20;99.90
2162;DHT22;1087;50.226;8.682;2023-04-24T01:08:14;14.30;99.90
2162;DHT22;1087;50.226;8.682;2023-04-24T01:10:41;14.10;99.90
2162;DHT22;1087;50.226;8.682;2023-04-24T01:13:08;14.20;99.90
2162;DHT22;1087;50.226;8.682;2023-04-24T01:15:34;14.30;99.90
2162;DHT22;1087;50.226;8.682;2023-04-24T01:18:00;14.40;99.90
2162;DHT22;1087;50.226;8.682;2023-04-24T01:20:26;14.30;99.90
2162;DHT22;1087;50.226;8.682;2023-04-24T01:22:52;14.20;99.90
2162;DHT22;1087;50.226;8.682;2023-04-24T01:25:18;14.30;99.90
2162;DHT22;1087;50.226;8.682;2023-04-24T01:27:44;14.30;99.90
2162;DHT22;1087;50.226;8.682;2023-04-24T01:30:10;14.30;99.90
2162;DHT22;1087;50.226;8.682;2023-04-24T01:32:37;14.30;99.90
2162;DHT22;1087;50.226;8.682;2023-04-24T01:35:03;14.30;99.90
2162;DHT22;1087;50.226;8.682;2023-04-24T01:37:29;14.20;99.90
2162;DHT22;1087;50.226;8.682;2023-04-24T01:39:54;14.20;99.90
2162;DHT22;1087;50.226;8.682;2023-04-24T01:42:20;14.30;99.90
2162;DHT22;1087;50.226;8.682;2023-04-24T01:44:45;14.20;99.90
2162;DHT22;1087;50.226;8.682;2023-04-24T01:47:12;14.00;99.90
2162;DHT22;1087;50.226;8.682;2023-04-24T01:49:39;14.10;99.90
2162;DHT22;1087;50.226;8.682;2023-04-24T01:52:05;14.00;99.90
2162;DHT22;1087;50.226;8.682;2023-04-24T01:54:30;14.00;99.90
2162;DHT22;1087;50.226;8.682;2023-04-24T01:56:56;14.00;99.90
2162;DHT22;1087;50.226;8.682;2023-04-24T01:59:23;13.90;99.90
2162;DHT22;1087;50.226;8.682;2023-04-24T02:01:50;14.00;99.90
2162;DHT22;1087;50.226;8.682;2023-04-24T02:04:16;13.90;99.90
2162;DHT22;1087;50.226;8.682;2023-04-24T02:06:41;14.00;99.90
2162;DHT22;1087;50.226;8.682;2023-04-24T02:09:07;14.10;99.90
2162;DHT22;1087;50.226;8.682;2023-04-24T02:11:33;14.10;99.90
2162;DHT22;1087;50.226;8.682;2023-04-24T02:13:58;14.10;99.90
2162;DHT22;1087;50.226;8.682;2023-04-24T02:16:24;14.10;99.90
2162;DHT22;1087;50.226;8.682;2023-04-24T02:18:50;14.20;99.90
2162;DHT22;1087;50.226;8.682;2023-04-24T02:21:15;14.20;99.90
2162;DHT22;1087;50.226;8.682;2023-04-24T02:23:41;14.00;99.90
2162;DHT22;1087;50.226;8.682;2023-04-24T02:26:06;13.70;99.90
2162;DHT22;1087;50.226;8.682;2023-04-24T02:28:32;13.90;99.90
2162;DHT22;1087;50.226;8.682;2023-04-24T02:30:57;13.80;99.90
2162;DHT22;1087;50.226;8.682;2023-04-24T02:33:23;13.80;99.90
2162;DHT22;1087;50.226;8.682;2023-04-24T02:35:49;13.80;99.90
2162;DHT22;1087;50.226;8.682;2023-04-24T02:38:14;13.80;99.90
2162;DHT22;1087;50.226;8.682;2023-04-24T02:40:40;13.70;99.90
2162;DHT22;1087;50.226;8.682;2023-04-24T02:43:05;13.60;99.90
2162;DHT22;1087;50.226;8.682;2023-04-24T02:45:31;13.70;99.90
2162;DHT22;1087;50.226;8.682;2023-04-24T02:47:56;13.60;99.90
2162;DHT22;1087;50.226;8.682;2023-04-24T02:50:22;13.60;99.90
2162;DHT22;1087;50.226;8.682;2023-04-24T02:52:47;13.50;99.90
2162;DHT22;1087;50.226;8.682;2023-04-24T02:55:13;13.30;99.90
2162;DHT22;1087;50.226;8.682;2023-04-24T02:57:38;13.40;99.90
2162;DHT22;1087;50.226;8.682;2023-04-24T03:00:04;13.50;99.90
2162;DHT22;1087;50.226;8.682;2023-04-24T03:02:32;13.50;99.90
2162;DHT22;1087;50.226;8.682;2023-04-24T03:04:57;13.60;99.90
2162;DHT22;1087;50.226;8.682;2023-04-24T03:07:23;13.60;99.90
2162;DHT22;1087;50.226;8.682;2023-04-24T03:09:49;13.70;99.90
2162;DHT22;1087;50.226;8.682;2023-04-24T03:12:14;13.60;99.90
2162;DHT22;1087;50.226;8.682;2023-04-24T03:14:42;13.60;99.90
2162;DHT22;1087;50.226;8.682;2023-04-24T03:17:07;13.60;99.90
2162;DHT22;1087;50.226;8.682;2023-04-24T03:19:33;13.60;99.90
2162;DHT22;1087;50.226;8.682;2023-04-24T03:21:58;13.60;99.90
2162;DHT22;1087;50.226;8.682;2023-04-24T03:24:24;13.70;99.90
2162;DHT22;1087;50.226;8.682;2023-04-24T03:26:50;13.70;99.90
2162;DHT22;1087;50.226;8.682;2023-04-24T03:29:15;13.70;99.90
2162;DHT22;1087;50.226;8.682;2023-04-24T03:31:41;13.80;99.90
2162;DHT22;1087;50.226;8.682;2023-04-24T03:34:06;13.60;99.90
2162;DHT22;1087;50.226;8.682;2023-04-24T03:36:32;13.70;99.90
2162;DHT22;1087;50.226;8.682;2023-04-24T03:38:57;13.70;99.90
2162;DHT22;1087;50.226;8.682;2023-04-24T03:41:23;13.70;99.90
2162;DHT22;1087;50.226;8.682;2023-04-24T03:43:48;13.70;99.90
2162;DHT22;1087;50.226;8.682;2023-04-24T03:46:14;13.80;99.90
2162;DHT22;1087;50.226;8.682;2023-04-24T03:48:40;13.70;99.90
2162;DHT22;1087;50.226;8.682;2023-04-24T03:51:05;13.80;99.90
2162;DHT22;1087;50.226;8.682;2023-04-24T03:53:31;13.60;99.90
2162;DHT22;1087;50.226;8.682;2023-04-24T03:55:56;13.60;99.90
2162;DHT22;1087;50.226;8.682;2023-04-24T03:58:22;13.60;99.90
2162;DHT22;1087;50.226;8.682;2023-04-24T04:00:47;13.60;99.90
2162;DHT22;1087;50.226;8.682;2023-04-24T04:03:13;13.70;99.90
2162;DHT22;1087;50.226;8.682;2023-04-24T04:05:40;13.70;99.90
2162;DHT22;1087;50.226;8.682;2023-04-24T04:08:05;13.50;99.90
2162;DHT22;1087;50.226;8.682;2023-04-24T04:10:31;13.30;99.90
2162;DHT22;1087;50.226;8.682;2023-04-24T04:12:56;13.20;99.90
2162;DHT22;1087;50.226;8.682;2023-04-24T04:15:22;13.10;99.90
2162;DHT22;1087;50.226;8.682;2023-04-24T04:17:47;13.10;99.90
2162;DHT22;1087;50.226;8.682;2023-04-24T04:20:13;13.20;99.90
2162;DHT22;1087;50.226;8.682;2023-04-24T04:22:38;13.10;99.90
2162;DHT22;1087;50.226;8.682;2023-04-24T04:25:04;13.10;99.90
2162;DHT22;1087;50.226;8.682;2023-04-24T04:27:30;13.20;99.90
2162;DHT22;1087;50.226;8.682;2023-04-24T04:29:58;13.20;99.90
2162;DHT22;1087;50.226;8.682;2023-04-24T04:32:26;13.30;99.90
2162;DHT22;1087;50.226;8.682;2023-04-24T04:34:52;13.30;99.90
2162;DHT22;1087;50.226;8.682;2023-04-24T04:37:18;13.20;99.90
2162;DHT22;1087;50.226;8.682;2023-04-24T04:39:44;13.30;99.90
2162;DHT22;1087;50.226;8.682;2023-04-24T04:42:09;13.30;99.90
2162;DHT22;1087;50.226;8.682;2023-04-24T04:44:35;13.30;99.90
2162;DHT22;1087;50.226;8.682;2023-04-24T04:47:01;13.30;99.90
2162;DHT22;1087;50.226;8.682;2023-04-24T04:49:31;13.30;99.90
2162;DHT22;1087;50.226;8.682;2023-04-24T04:51:56;13.40;99.90
2162;DHT22;1087;50.226;8.682;2023-04-24T04:54:22;13.40;99.90
2162;DHT22;1087;50.226;8.682;2023-04-24T04:56:50;13.40;99.90
2162;DHT22;1087;50.226;8.682;2023-04-24T04:59:16;13.30;99.90
2162;DHT22;1087;50.226;8.682;2023-04-24T05:01:41;13.30;99.90
2162;DHT22;1087;50.226;8.682;2023-04-24T05:04:07;13.30;99.90
2162;DHT22;1087;50.226;8.682;2023-04-24T05:06:32;13.30;99.90
2162;DHT22;1087;50.226;8.682;2023-04-24T05:08:58;13.30;99.90
2162;DHT22;1087;50.226;8.682;2023-04-24T05:11:24;13.30;99.90
2162;DHT22;1087;50.226;8.682;2023-04-24T05:13:49;13.30;99.90
2162;DHT22;1087;50.226;8.682;2023-04-24T05:16:15;13.20;99.90
2162;DHT22;1087;50.226;8.682;2023-04-24T05:18:40;13.20;99.90
2162;DHT22;1087;50.226;8.682;2023-04-24T05:21:06;13.30;99.90
2162;DHT22;1087;50.226;8.682;2023-04-24T05:23:31;13.10;99.90
2162;DHT22;1087;50.226;8.682;2023-04-24T05:25:57;13.00;99.90
2162;DHT22;1087;50.226;8.682;2023-04-24T05:28:23;13.00;99.90
2162;DHT22;1087;50.226;8.682;2023-04-24T05:30:48;13.10;99.90
2162;DHT22;1087;50.226;8.682;2023-04-24T05:33:14;13.00;99.90
2162;DHT22;1087;50.226;8.682;2023-04-24T05:35:40;13.00;99.90
2162;DHT22;1087;50.226;8.682;2023-04-24T05:38:11;12.90;99.90
2162;DHT22;1087;50.226;8.682;2023-04-24T05:40:36;12.90;99.90
2162;DHT22;1087;50.226;8.682;2023-04-24T05:43:02;12.90;99.90
2162;DHT22;1087;50.226;8.682;2023-04-24T05:45:27;12.80;99.90
2162;DHT22;1087;50.226;8.682;2023-04-24T05:47:53;12.80;99.90
2162;DHT22;1087;50.226;8.682;2023-04-24T05:50:19;12.90;99.90
2162;DHT22;1087;50.226;8.682;2023-04-24T05:52:44;12.90;99.90
2162;DHT22;1087;50.226;8.682;2023-04-24T05:55:10;12.90;99.90
2162;DHT22;1087;50.226;8.682;2023-04-24T05:57:35;12.80;99.90
2162;DHT22;1087;50.226;8.682;2023-04-24T06:00:01;12.70;99.90
2162;DHT22;1087;50.226;8.682;2023-04-24T06:02:26;12.70;99.90
2162;DHT22;1087;50.226;8.682;2023-04-24T06:04:52;12.60;99.90
2162;DHT22;1087;50.226;8.682;2023-04-24T06:07:18;12.60;99.90
2162;DHT22;1087;50.226;8.682;2023-04-24T06:09:43;12.70;99.90
2162;DHT22;1087;50.226;8.682;2023-04-24T06:12:09;12.60;99.90
2162;DHT22;1087;50.226;8.682;2023-04-24T06:14:35;12.60;99.90
2162;DHT22;1087;50.226;8.682;2023-04-24T06:17:00;12.60;99.90
2162;DHT22;1087;50.226;8.682;2023-04-24T06:19:26;12.60;99.90
2162;DHT22;1087;50.226;8.682;2023-04-24T06:21:51;12.50;99.90
2162;DHT22;1087;50.226;8.682;2023-04-24T06:24:17;12.60;99.90
2162;DHT22;1087;50.226;8.682;2023-04-24T06:26:42;12.60;99.90
2162;DHT22;1087;50.226;8.682;2023-04-24T06:29:08;12.50;99.90
2162;DHT22;1087;50.226;8.682;2023-04-24T06:31:33;12.60;99.90
2162;DHT22;1087;50.226;8.682;2023-04-24T06:34:02;12.60;99.90
2162;DHT22;1087;50.226;8.682;2023-04-24T06:36:28;12.70;99.90
2162;DHT22;1087;50.226;8.682;2023-04-24T06:38:54;12.70;99.90
2162;DHT22;1087;50.226;8.682;2023-04-24T06:41:19;12.70;99.90
2162;DHT22;1087;50.226;8.682;2023-04-24T06:43:44;12.70;99.90
2162;DHT22;1087;50.226;8.682;2023-04-24T06:46:10;12.50;99.90
2162;DHT22;1087;50.226;8.682;2023-04-24T06:48:36;12.60;99.90
2162;DHT22;1087;50.226;8.682;2023-04-24T06:51:01;12.60;99.90
2162;DHT22;1087;50.226;8.682;2023-04-24T06:53:27;12.80;99.90
2162;DHT22;1087;50.226;8.682;2023-04-24T06:55:52;12.80;99.90
2162;DHT22;1087;50.226;8.682;2023-04-24T06:58:18;12.70;99.90
2162;DHT22;1087;50.226;8.682;2023-04-24T07:00:43;12.70;99.90
2162;DHT22;1087;50.226;8.682;2023-04-24T07:03:09;12.70;99.90
2162;DHT22;1087;50.226;8.682;2023-04-24T07:05:35;12.70;99.90
2162;DHT22;1087;50.226;8.682;2023-04-24T07:08:01;12.60;99.90
2162;DHT22;1087;50.226;8.682;2023-04-24T07:10:27;12.70;99.90
2162;DHT22;1087;50.226;8.682;2023-04-24T07:12:54;12.70;99.90
2162;DHT22;1087;50.226;8.682;2023-04-24T07:15:21;12.80;99.90
2162;DHT22;1087;50.226;8.682;2023-04-24T07:17:46;12.80;99.90
2162;DHT22;1087;50.226;8.682;2023-04-24T07:20:12;12.90;99.90
2162;DHT22;1087;50.226;8.682;2023-04-24T07:22:39;13.00;99.90
2162;DHT22;1087;50.226;8.682;2023-04-24T07:25:06;12.90;99.90
2162;DHT22;1087;50.226;8.682;2023-04-24T07:27:32;12.90;99.90
2162;DHT22;1087;50.226;8.682;2023-04-24T07:29:58;12.80;99.90
2162;DHT22;1087;50.226;8.682;2023-04-24T07:32:23;12.90;99.90
2162;DHT22;1087;50.226;8.682;2023-04-24T07:34:49;13.00;99.90
2162;DHT22;1087;50.226;8.682;2023-04-24T07:37:14;13.10;99.90
2162;DHT22;1087;50.226;8.682;2023-04-24T07:39:40;13.20;99.90
2162;DHT22;1087;50.226;8.682;2023-04-24T07:42:06;13.30;99.90
2162;DHT22;1087;50.226;8.682;2023-04-24T07:44:31;13.20;99.90
2162;DHT22;1087;50.226;8.682;2023-04-24T07:46:57;13.20;99.90
2162;DHT22;1087;50.226;8.682;2023-04-24T07:49:23;13.20;99.90
2162;DHT22;1087;50.226;8.682;2023-04-24T07:51:49;13.20;99.90
2162;DHT22;1087;50.226;8.682;2023-04-24T07:54:15;13.10;99.90
2162;DHT22;1087;50.226;8.682;2023-04-24T07:56:41;13.20;99.90
2162;DHT22;1087;50.226;8.682;2023-04-24T07:59:08;13.30;99.90
2162;DHT22;1087;50.226;8.682;2023-04-24T08:01:35;13.30;99.90
2162;DHT22;1087;50.226;8.682;2023-04-24T08:04:01;13.50;99.90
2162;DHT22;1087;50.226;8.682;2023-04-24T08:06:27;13.50;99.90
2162;DHT22;1087;50.226;8.682;2023-04-24T08:08:56;13.50;99.90
2162;DHT22;1087;50.226;8.682;2023-04-24T08:11:21;13.50;99.90
2162;DHT22;1087;50.226;8.682;2023-04-24T08:13:47;13.60;99.90
2162;DHT22;1087;50.226;8.682;2023-04-24T08:16:12;13.70;99.90
2162;DHT22;1087;50.226;8.682;2023-04-24T08:18:38;13.80;99.90
2162;DHT22;1087;50.226;8.682;2023-04-24T08:21:04;13.70;99.90
2162;DHT22;1087;50.226;8.682;2023-04-24T08:23:30;13.80;99.90
2162;DHT22;1087;50.226;8.682;2023-04-24T08:25:55;13.70;99.90
2162;DHT22;1087;50.226;8.682;2023-04-24T08:28:21;13.90;99.90
2162;DHT22;1087;50.226;8.682;2023-04-24T08:30:47;13.90;99.90
2162;DHT22;1087;50.226;8.682;2023-04-24T08:33:14;13.90;99.90
2162;DHT22;1087;50.226;8.682;2023-04-24T08:35:39;13.90;99.90
2162;DHT22;1087;50.226;8.682;2023-04-24T08:38:05;13.90;99.90
2162;DHT22;1087;50.226;8.682;2023-04-24T08:40:33;13.90;99.90
2162;DHT22;1087;50.226;8.682;2023-04-24T08:42:59;13.90;99.90
2162;DHT22;1087;50.226;8.682;2023-04-24T08:45:24;14.00;99.90
2162;DHT22;1087;50.226;8.682;2023-04-24T08:47:52;14.20;99.90
2162;DHT22;1087;50.226;8.682;2023-04-24T08:50:18;14.10;99.90
2162;DHT22;1087;50.226;8.682;2023-04-24T08:52:44;14.10;99.90
2162;DHT22;1087;50.226;8.682;2023-04-24T08:55:10;14.00;99.90
2162;DHT22;1087;50.226;8.682;2023-04-24T08:57:36;13.90;99.90
2162;DHT22;1087;50.226;8.682;2023-04-24T09:00:04;13.80;99.90
2162;DHT22;1087;50.226;8.682;2023-04-24T09:02:30;13.70;99.90
2162;DHT22;1087;50.226;8.682;2023-04-24T09:04:57;13.80;99.90
2162;DHT22;1087;50.226;8.682;2023-04-24T09:07:24;13.70;99.90
2162;DHT22;1087;50.226;8.682;2023-04-24T09:09:51;13.60;99.90
2162;DHT22;1087;50.226;8.682;2023-04-24T09:12:18;13.70;99.90
2162;DHT22;1087;50.226;8.682;2023-04-24T09:14:44;13.80;99.90
2162;DHT22;1087;50.226;8.682;2023-04-24T09:17:11;13.90;99.90
2162;DHT22;1087;50.226;8.682;2023-04-24T09:19:37;13.90;99.90
2162;DHT22;1087;50.226;8.682;2023-04-24T09:22:06;13.90;99.90
2162;DHT22;1087;50.226;8.682;2023-04-24T09:24:34;13.90;99.90
2162;DHT22;1087;50.226;8.682;2023-04-24T09:27:01;13.90;99.90
2162;DHT22;1087;50.226;8.682;2023-04-24T09:29:27;13.80;99.90
2162;DHT22;1087;50.226;8.682;2023-04-24T09:31:53;13.80;99.90
2162;DHT22;1087;50.226;8.682;2023-04-24T09:34:23;13.60;99.90
2162;DHT22;1087;50.226;8.682;2023-04-24T09:36:49;13.70;99.90
2162;DHT22;1087;50.226;8.682;2023-04-24T09:39:16;13.60;99.90
2162;DHT22;1087;50.226;8.682;2023-04-24T09:41:55;13.50;99.90
2162;DHT22;1087;50.226;8.682;2023-04-24T09:44:25;13.50;99.90
2162;DHT22;1087;50.226;8.682;2023-04-24T09:46:58;13.50;99.90
2162;DHT22;1087;50.226;8.682;2023-04-24T09:49:30;13.40;99.90
2162;DHT22;1087;50.226;8.682;2023-04-24T09:52:09;13.50;99.90
2162;DHT22;1087;50.226;8.682;2023-04-24T09:54:35;13.40;99.90
2162;DHT22;1087;50.226;8.682;2023-04-24T09:57:04;13.30;99.90
2162;DHT22;1087;50.226;8.682;2023-04-24T09:59:30;13.20;99.90
2162;DHT22;1087;50.226;8.682;2023-04-24T10:01:56;13.30;99.90
2162;DHT22;1087;50.226;8.682;2023-04-24T10:04:27;13.30;99.90
2162;DHT22;1087;50.226;8.682;2023-04-24T10:06:55;13.30;99.90
2162;DHT22;1087;50.226;8.682;2023-04-24T10:09:22;13.30;99.90
2162;DHT22;1087;50.226;8.682;2023-04-24T10:11:50;13.40;99.90
2162;DHT22;1087;50.226;8.682;2023-04-24T10:14:21;13.50;99.90
2162;DHT22;1087;50.226;8.682;2023-04-24T10:16:47;13.60;99.90
2162;DHT22;1087;50.226;8.682;2023-04-24T10:19:14;13.60;99.90
2162;DHT22;1087;50.226;8.682;2023-04-24T10:21:42;13.70;99.90
2162;DHT22;1087;50.226;8.682;2023-04-24T10:24:15;13.60;99.90
2162;DHT22;1087;50.226;8.682;2023-04-24T10:26:42;13.50;99.90
2162;DHT22;1087;50.226;8.682;2023-04-24T10:29:08;13.50;99.90
2162;DHT22;1087;50.226;8.682;2023-04-24T10:31:37;13.60;99.90
2162;DHT22;1087;50.226;8.682;2023-04-24T10:34:04;13.60;99.90
2162;DHT22;1087;50.226;8.682;2023-04-24T10:36:31;13.60;99.90
2162;DHT22;1087;50.226;8.682;2023-04-24T10:38:59;13.50;99.90
2162;DHT22;1087;50.226;8.682;2023-04-24T10:41:26;13.40;99.90
2162;DHT22;1087;50.226;8.682;2023-04-24T10:46:30;13.60;99.90
2162;DHT22;1087;50.226;8.682;2023-04-24T10:48:56;13.40;99.90
2162;DHT22;1087;50.226;8.682;2023-04-24T10:51:24;13.30;99.90
2162;DHT22;1087;50.226;8.682;2023-04-24T10:59:48;13.20;99.90
2162;DHT22;1087;50.226;8.682;2023-04-24T11:02:14;13.30;99.90
2162;DHT22;1087;50.226;8.682;2023-04-24T11:04:41;13.50;99.90
2162;DHT22;1087;50.226;8.682;2023-04-24T11:07:09;13.60;99.90
2162;DHT22;1087;50.226;8.682;2023-04-24T11:09:35;13.60;99.90
2162;DHT22;1087;50.226;8.682;2023-04-24T11:12:06;13.80;99.90
2162;DHT22;1087;50.226;8.682;2023-04-24T11:17:33;13.70;99.90
2162;DHT22;1087;50.226;8.682;2023-04-24T11:20:03;13.80;99.90
2162;DHT22;1087;50.226;8.682;2023-04-24T11:22:34;13.70;99.90
2162;DHT22;1087;50.226;8.682;2023-04-24T11:25:02;13.80;99.90
2162;DHT22;1087;50.226;8.682;2023-04-24T11:27:30;13.80;99.90
2162;DHT22;1087;50.226;8.682;2023-04-24T11:32:38;13.80;99.90
2162;DHT22;1087;50.226;8.682;2023-04-24T11:35:08;13.90;99.90
2162;DHT22;1087;50.226;8.682;2023-04-24T11:37:38;14.00;99.90
2162;DHT22;1087;50.226;8.682;2023-04-24T11:40:15;14.10;99.90
2162;DHT22;1087;50.226;8.682;2023-04-24T11:42:45;14.30;99.90
2162;DHT22;1087;50.226;8.682;2023-04-24T11:45:21;14.50;99.90
2162;DHT22;1087;50.226;8.682;2023-04-24T11:47:46;14.50;99.90
2162;DHT22;1087;50.226;8.682;2023-04-24T11:50:17;14.50;99.90
2162;DHT22;1087;50.226;8.682;2023-04-24T11:52:45;14.40;99.90
2162;DHT22;1087;50.226;8.682;2023-04-24T11:57:46;14.50;99.90
2162;DHT22;1087;50.226;8.682;2023-04-24T12:00:20;14.60;99.90
2162;DHT22;1087;50.226;8.682;2023-04-24T12:02:47;14.60;99.90
2162;DHT22;1087;50.226;8.682;2023-04-24T12:05:23;14.60;99.90
2162;DHT22;1087;50.226;8.682;2023-04-24T12:07:49;14.60;99.90
2162;DHT22;1087;50.226;8.682;2023-04-24T12:10:22;14.70;99.90
2162;DHT22;1087;50.226;8.682;2023-04-24T12:12:49;14.70;99.90
2162;DHT22;1087;50.226;8.682;2023-04-24T12:15:17;14.80;99.90
2162;DHT22;1087;50.226;8.682;2023-04-24T12:17:44;14.80;99.90
2162;DHT22;1087;50.226;8.682;2023-04-24T12:20:10;14.90;99.90
2162;DHT22;1087;50.226;8.682;2023-04-24T12:22:50;14.70;99.90
2162;DHT22;1087;50.226;8.682;2023-04-24T12:25:17;14.60;99.90
2162;DHT22;1087;50.226;8.682;2023-04-24T12:27:44;14.40;99.90
2162;DHT22;1087;50.226;8.682;2023-04-24T12:30:13;14.40;99.90
2162;DHT22;1087;50.226;8.682;2023-04-24T12:32:46;14.50;99.90
2162;DHT22;1087;50.226;8.682;2023-04-24T12:35:13;14.70;99.90
2162;DHT22;1087;50.226;8.682;2023-04-24T12:37:41;14.60;99.90
2162;DHT22;1087;50.226;8.682;2023-04-24T12:40:10;14.80;99.90
2162;DHT22;1087;50.226;8.682;2023-04-24T12:42:45;14.90;99.90
2162;DHT22;1087;50.226;8.682;2023-04-24T12:45:11;14.90;99.90
2162;DHT22;1087;50.226;8.682;2023-04-24T12:47:38;14.90;99.90
2162;DHT22;1087;50.226;8.682;2023-04-24T12:50:04;15.00;99.90
2162;DHT22;1087;50.226;8.682;2023-04-24T12:52:30;14.90;99.90
2162;DHT22;1087;50.226;8.682;2023-04-24T12:54:57;14.90;99.90
2162;DHT22;1087;50.226;8.682;2023-04-24T12:57:23;14.90;99.90
2162;DHT22;1087;50.226;8.682;2023-04-24T12:59:49;14.90;99.90
2162;DHT22;1087;50.226;8.682;2023-04-24T13:02:16;14.80;99.90
2162;DHT22;1087;50.226;8.682;2023-04-24T13:04:46;14.60;99.90
2162;DHT22;1087;50.226;8.682;2023-04-24T13:07:15;14.50;99.90
2162;DHT22;1087;50.226;8.682;2023-04-24T13:09:41;14.40;99.90
2162;DHT22;1087;50.226;8.682;2023-04-24T13:12:07;14.30;99.90
2162;DHT22;1087;50.226;8.682;2023-04-24T13:14:34;14.20;99.90
2162;DHT22;1087;50.226;8.682;2023-04-24T13:17:00;14.00;99.90
2162;DHT22;1087;50.226;8.682;2023-04-24T13:19:26;14.00;99.90
2162;DHT22;1087;50.226;8.682;2023-04-24T13:21:53;14.10;99.90
2162;DHT22;1087;50.226;8.682;2023-04-24T13:24:19;14.10;99.90
2162;DHT22;1087;50.226;8.682;2023-04-24T13:26:45;14.20;99.90
2162;DHT22;1087;50.226;8.682;2023-04-24T13:29:10;14.10;99.90
2162;DHT22;1087;50.226;8.682;2023-04-24T13:31:36;14.20;99.90
2162;DHT22;1087;50.226;8.682;2023-04-24T13:34:02;14.10;99.90
2162;DHT22;1087;50.226;8.682;2023-04-24T13:36:30;14.20;99.90
2162;DHT22;1087;50.226;8.682;2023-04-24T13:38:56;14.30;99.90
2162;DHT22;1087;50.226;8.682;2023-04-24T13:41:22;14.10;99.90
2162;DHT22;1087;50.226;8.682;2023-04-24T13:43:47;13.90;99.90
2162;DHT22;1087;50.226;8.682;2023-04-24T13:46:13;13.90;99.90
2162;DHT22;1087;50.226;8.682;2023-04-24T13:48:38;13.80;99.90
2162;DHT22;1087;50.226;8.682;2023-04-24T13:51:04;13.60;99.90
2162;DHT22;1087;50.226;8.682;2023-04-24T13:53:29;13.60;99.90
2162;DHT22;1087;50.226;8.682;2023-04-24T13:55:55;13.70;99.90
2162;DHT22;1087;50.226;8.682;2023-04-24T13:58:21;13.80;99.90
2162;DHT22;1087;50.226;8.682;2023-04-24T14:00:46;13.80;99.90
2162;DHT22;1087;50.226;8.682;2023-04-24T14:03:12;13.70;99.90
2162;DHT22;1087;50.226;8.682;2023-04-24T14:05:37;13.80;99.90
2162;DHT22;1087;50.226;8.682;2023-04-24T14:08:04;14.00;99.90
2162;DHT22;1087;50.226;8.682;2023-04-24T14:10:29;14.10;99.90
2162;DHT22;1087;50.226;8.682;2023-04-24T14:12:55;14.10;99.90
2162;DHT22;1087;50.226;8.682;2023-04-24T14:15:21;14.20;99.90
2162;DHT22;1087;50.226;8.682;2023-04-24T14:17:47;14.30;99.90
2162;DHT22;1087;50.226;8.682;2023-04-24T14:20:13;14.30;99.90
2162;DHT22;1087;50.226;8.682;2023-04-24T14:22:38;14.40;99.90
2162;DHT22;1087;50.226;8.682;2023-04-24T14:25:05;14.30;99.90
2162;DHT22;1087;50.226;8.682;2023-04-24T14:27:31;14.50;99.90
2162;DHT22;1087;50.226;8.682;2023-04-24T14:29:57;14.70;99.90
2162;DHT22;1087;50.226;8.682;2023-04-24T14:32:23;14.60;99.90
2162;DHT22;1087;50.226;8.682;2023-04-24T14:34:48;14.60;99.90
2162;DHT22;1087;50.226;8.682;2023-04-24T14:37:14;14.50;99.90
2162;DHT22;1087;50.226;8.682;2023-04-24T14:39:40;14.40;99.90
2162;DHT22;1087;50.226;8.682;2023-04-24T14:42:06;14.30;99.90
2162;DHT22;1087;50.226;8.682;2023-04-24T14:44:31;14.40;99.90
2162;DHT22;1087;50.226;8.682;2023-04-24T14:46:58;14.40;99.90
2162;DHT22;1087;50.226;8.682;2023-04-24T14:49:24;14.30;99.90
2162;DHT22;1087;50.226;8.682;2023-04-24T14:51:49;14.30;99.90
2162;DHT22;1087;50.226;8.682;2023-04-24T14:54:15;14.30;99.90
2162;DHT22;1087;50.226;8.682;2023-04-24T14:56:40;14.20;99.90
2162;DHT22;1087;50.226;8.682;2023-04-24T14:59:07;14.10;99.90
2162;DHT22;1087;50.226;8.682;2023-04-24T15:01:33;14.10;99.90
2162;DHT22;1087;50.226;8.682;2023-04-24T15:03:59;14.30;99.90
2162;DHT22;1087;50.226;8.682;2023-04-24T15:06:24;14.40;99.90
2162;DHT22;1087;50.226;8.682;2023-04-24T15:08:50;14.40;99.90
2162;DHT22;1087;50.226;8.682;2023-04-24T15:11:16;14.50;99.90
2162;DHT22;1087;50.226;8.682;2023-04-24T15:13:41;14.50;99.90
2162;DHT22;1087;50.226;8.682;2023-04-24T15:16:07;14.50;99.90
2162;DHT22;1087;50.226;8.682;2023-04-24T15:18:33;14.60;99.90
2162;DHT22;1087;50.226;8.682;2023-04-24T15:20:59;14.70;99.90
2162;DHT22;1087;50.226;8.682;2023-04-24T15:23:24;14.70;99.90
2162;DHT22;1087;50.226;8.682;2023-04-24T15:25:50;14.70;99.90
2162;DHT22;1087;50.226;8.682;2023-04-24T15:28:15;14.60;99.90
2162;DHT22;1087;50.226;8.682;2023-04-24T15:30:43;14.50;99.90
2162;DHT22;1087;50.226;8.682;2023-04-24T15:33:08;14.60;99.90
2162;DHT22;1087;50.226;8.682;2023-04-24T15:35:34;14.50;99.90
2162;DHT22;1087;50.226;8.682;2023-04-24T15:37:59;14.50;99.90
2162;DHT22;1087;50.226;8.682;2023-04-24T15:40:25;14.60;99.90
2162;DHT22;1087;50.226;8.682;2023-04-24T15:42:50;14.50;99.90
2162;DHT22;1087;50.226;8.682;2023-04-24T15:45:16;14.40;99.90
2162;DHT22;1087;50.226;8.682;2023-04-24T15:47:44;14.40;99.90
2162;DHT22;1087;50.226;8.682;2023-04-24T15:50:11;14.50;99.90
2162;DHT22;1087;50.226;8.682;2023-04-24T15:52:36;14.40;99.90
2162;DHT22;1087;50.226;8.682;2023-04-24T15:55:03;14.50;99.90
2162;DHT22;1087;50.226;8.682;2023-04-24T15:57:30;14.40;99.90
2162;DHT22;1087;50.226;8.682;2023-04-24T15:59:55;14.50;99.90
2162;DHT22;1087;50.226;8.682;2023-04-24T16:02:22;14.60;99.90
2162;DHT22;1087;50.226;8.682;2023-04-24T16:04:48;14.70;99.90
2162;DHT22;1087;50.226;8.682;2023-04-24T16:07:15;14.70;99.90
2162;DHT22;1087;50.226;8.682;2023-04-24T16:09:43;14.70;99.90
2162;DHT22;1087;50.226;8.682;2023-04-24T16:12:09;14.80;99.90
2162;DHT22;1087;50.226;8.682;2023-04-24T16:14:35;14.90;99.90